This is the latest recevied weather packets stored in our database for station/object JA1RBY-13. If no packets are shown the sender has not sent any weather packets the latest 10 day(s).
| Time | Temp. | Humidity | Pressure | Rain* | Wind** | Luminosity | Snow |
|---|---|---|---|---|---|---|---|
| 1788416397 | 31.11° C | 55% | 1011 hPa | 0 mm | - | - | - |
| 1788414595 | 31.11° C | 53% | 1009.9 hPa | 0 mm | - | - | - |
| 1788412795 | 31.67° C | 51% | 1010.1 hPa | 0 mm | - | - | - |
| 1788410997 | 31.67° C | 51% | 1010.6 hPa | 0 mm | - | - | - |
| 1788409197 | 32.22° C | 53% | 1010.5 hPa | 0 mm | - | - | - |
| 1788407396 | 31.67° C | 54% | 1010.1 hPa | 0 mm | - | - | - |
| 1788405596 | 31.11° C | 54% | 1010.4 hPa | 0 mm | - | - | - |
| 1788403796 | 31.11° C | 53% | 1010.6 hPa | 0 mm | - | - | - |
| 1788401996 | 30.56° C | 56% | 1010.6 hPa | 0 mm | - | - | - |
| 1788400196 | 30° C | 58% | 1010.8 hPa | 0 mm | - | - | - |
| 1788378596 | 25° C | 68% | 1011.7 hPa | 0 mm | - | - | - |
| 1788376796 | 25° C | 67% | 1012 hPa | 0 mm | - | - | - |
| 1788373197 | 25° C | 67% | 1012.4 hPa | 0 mm | - | - | - |
| 1788371397 | 25.56° C | 67% | 1012.8 hPa | 0 mm | - | - | - |
| 1788369597 | 25.56° C | 68% | 1013.1 hPa | 0 mm | - | - | - |
| 1788365995 | 25.56° C | 70% | 1012.9 hPa | 0 mm | - | - | - |
| 1788362396 | 26.11° C | 69% | 1013.4 hPa | 0 mm | - | - | - |
| 1788358796 | 25.56° C | 69% | 1013.5 hPa | 0 mm | - | - | - |
| 1788355197 | 26.11° C | 69% | 1013.6 hPa | 0 mm | - | - | - |
| 1788353397 | 26.11° C | 68% | 1013.9 hPa | 0 mm | - | - | - |
| 1788351596 | 26.11° C | 68% | 1013.9 hPa | 0 mm | - | - | - |
| 1788349795 | 26.67° C | 67% | 1014 hPa | 0 mm | - | - | - |
| 1788347997 | 26.67° C | 67% | 1014 hPa | 0 mm | - | - | - |
| 1788346197 | 26.67° C | 66% | 1014.1 hPa | 0 mm | - | - | - |
| 1788344395 | 26.67° C | 66% | 1013.9 hPa | 0 mm | - | - | - |
* Rain latest hour (hover to see other rain measurements)
** Current wind speed in m/s (hover to see current wind gust speed)